Tanner, Alabama
Current Conditions -  °F | °C
As of 6:53 PM on Monday 22 Dec 2014 (Local Time) from KDCU Reporting Station
Overcast Overcast  
Wind Chill: 51°   Ceiling: 1000
Heat Index: 51°   Visibility: 10mi
Dew Point: 48°   Wind: 9mph
Humidity: 89%   Direction: 140°SE
Pressure: 29.76"   Gusts: NA
Location:  34.73°N, 86.97°W
Report Text: KDCU 230053Z AUTO 14008KT 10SM OVC010 11/09 A2976 RMK AO2 RAE03B23E33 SLP075 P0000 T01060089
Loading
Personal Weather Stations






























Interactive Weather Map New forecast layout! Learn more

10-Day Weather Forecast

Advertisements
Track Severe Weather on mobile